Time,TemperatureF,DewpointF,PressureIn,WindDirection,WindDirectionDegrees,WindSpeedMPH,WindSpeedGustMPH,Humidity,HourlyPrecipIn,Conditions,Clouds,dailyrainin,SoftwareType,DateUTC
2013-02-14 00:00:00,65.3,65.3,29.94,South,175,0.0,0.0,100,0.00,,---,0.00,VWS V14.01,2013-02-14 05:00:00,
2013-02-14 00:05:00,65.5,65.5,29.94,South,175,0.0,0.0,100,0.00,,---,0.00,VWS V14.01,2013-02-14 05:05:00,
2013-02-14 00:10:00,65.5,65.5,29.94,South,175,0.0,0.0,100,0.00,,---,0.00,VWS V14.01,2013-02-14 05:10:00,
2013-02-14 00:15:00,65.5,65.5,29.94,South,175,0.0,0.0,100,0.00,,---,0.00,VWS V14.01,2013-02-14 05:15:00,
2013-02-14 00:20:00,65.5,65.5,29.94,South,175,0.0,0.0,100,0.00,,---,0.00,VWS V14.01,2013-02-14 05:20:00,
2013-02-14 00:25:00,65.5,65.5,29.94,South,175,0.0,0.0,100,0.00,,---,0.00,VWS V14.01,2013-02-14 05:25:00,
2013-02-14 00:30:00,65.7,65.7,29.94,South,175,0.0,0.0,100,0.00,,---,0.00,VWS V14.01,2013-02-14 05:30:00,
2013-02-14 00:35:00,65.5,65.5,29.94,South,175,0.0,0.0,100,0.00,,---,0.00,VWS V14.01,2013-02-14 05:35:00,
2013-02-14 00:40:00,65.7,65.7,29.91,South,175,0.0,0.0,100,0.00,,---,0.00,VWS V14.01,2013-02-14 05:40:00,
2013-02-14 00:45:00,65.5,65.5,29.91,South,175,0.0,0.0,100,0.00,,---,0.00,VWS V14.01,2013-02-14 05:45:00,
2013-02-14 00:50:00,65.5,65.5,29.91,South,175,0.0,0.0,100,0.00,,---,0.00,VWS V14.01,2013-02-14 05:50:00,
2013-02-14 00:55:00,65.7,65.7,29.91,South,175,0.0,0.0,100,0.00,,---,0.00,VWS V14.01,2013-02-14 05:55:00,
2013-02-14 01:00:00,65.7,65.7,29.91,South,175,0.0,0.0,100,0.00,,---,0.00,VWS V14.01,2013-02-14 06:00:00,
2013-02-14 01:05:00,65.7,65.7,29.91,South,175,0.0,0.0,100,0.00,,---,0.00,VWS V14.01,2013-02-14 06:05:00,
2013-02-14 01:10:00,65.7,65.7,29.91,South,175,0.0,0.0,100,0.00,,---,0.00,VWS V14.01,2013-02-14 06:10:00,
2013-02-14 01:15:00,65.7,65.7,29.91,South,175,0.0,0.0,100,0.00,,---,0.00,VWS V14.01,2013-02-14 06:15:00,
2013-02-14 01:20:00,65.8,65.8,29.91,South,175,0.0,0.0,100,0.00,,---,0.00,VWS V14.01,2013-02-14 06:20:00,
2013-02-14 01:25:00,65.8,65.8,29.94,South,175,0.0,0.0,100,0.00,,---,0.00,VWS V14.01,2013-02-14 06:25:00,
2013-02-14 01:30:00,65.8,65.8,29.94,South,175,0.0,0.0,100,0.00,,---,0.00,VWS V14.01,2013-02-14 06:30:00,
2013-02-14 01:35:00,65.8,65.8,29.94,South,175,0.0,0.0,100,0.00,,---,0.00,VWS V14.01,2013-02-14 06:35:00,
2013-02-14 01:40:00,65.8,65.8,29.91,South,175,0.0,0.0,100,0.00,,---,0.00,VWS V14.01,2013-02-14 06:40:00,
2013-02-14 01:45:00,65.8,65.8,29.91,South,175,0.0,0.0,100,0.00,,---,0.00,VWS V14.01,2013-02-14 06:45:00,
2013-02-14 01:50:00,65.8,65.8,29.91,South,175,0.0,0.0,100,0.00,,---,0.00,VWS V14.01,2013-02-14 06:50:00,
2013-02-14 01:55:00,65.8,65.8,29.91,South,175,0.0,0.0,100,0.00,,---,0.00,VWS V14.01,2013-02-14 06:55:00,
2013-02-14 02:00:00,65.8,65.8,29.91,South,175,0.0,0.0,100,0.00,,---,0.00,VWS V14.01,2013-02-14 07:00:00,
2013-02-14 02:05:00,65.8,65.8,29.91,South,175,0.0,0.0,100,0.00,,---,0.00,VWS V14.01,2013-02-14 07:05:00,
2013-02-14 02:10:00,65.8,65.8,29.91,South,175,0.0,0.0,100,0.00,,---,0.00,VWS V14.01,2013-02-14 07:10:00,
2013-02-14 02:15:00,65.8,65.8,29.91,South,190,0.0,0.0,100,0.00,,---,0.00,VWS V14.01,2013-02-14 07:15:00,
2013-02-14 02:20:00,65.8,65.8,29.91,South,190,0.0,0.0,100,0.00,,---,0.00,VWS V14.01,2013-02-14 07:20:00,
2013-02-14 02:25:00,65.8,65.8,29.88,South,190,0.0,0.0,100,0.00,,---,0.00,VWS V14.01,2013-02-14 07:25:00,
2013-02-14 02:30:00,65.8,65.8,29.88,South,190,0.0,0.0,100,0.00,,---,0.00,VWS V14.01,2013-02-14 07:30:00,
2013-02-14 02:35:00,65.8,65.8,29.88,South,190,0.0,0.0,100,0.00,,---,0.00,VWS V14.01,2013-02-14 07:35:00,
2013-02-14 02:40:00,65.8,65.8,29.88,South,190,0.0,0.0,100,0.00,,---,0.00,VWS V14.01,2013-02-14 07:40:00,
2013-02-14 02:45:00,65.8,65.8,29.88,South,190,0.0,0.0,100,0.00,,---,0.00,VWS V14.01,2013-02-14 07:45:00,
2013-02-14 02:50:00,66.0,66.0,29.88,South,190,0.0,0.0,100,0.00,,---,0.00,VWS V14.01,2013-02-14 07:50:00,
2013-02-14 02:55:00,66.0,66.0,29.88,South,190,0.0,0.0,100,0.00,,---,0.00,VWS V14.01,2013-02-14 07:55:00,
2013-02-14 03:00:00,66.0,66.0,29.88,South,190,0.0,0.0,100,0.00,,---,0.00,VWS V14.01,2013-02-14 08:00:00,
2013-02-14 03:05:00,66.0,66.0,29.88,South,190,0.0,0.0,100,0.00,,---,0.00,VWS V14.01,2013-02-14 08:05:00,
2013-02-14 03:10:00,66.0,66.0,29.88,South,190,0.0,0.0,100,0.00,,---,0.00,VWS V14.01,2013-02-14 08:10:00,
2013-02-14 03:15:00,66.0,66.0,29.88,South,190,0.0,0.0,100,0.00,,---,0.00,VWS V14.01,2013-02-14 08:15:00,
2013-02-14 03:20:00,66.0,66.0,29.88,South,190,0.0,0.0,100,0.00,,---,0.00,VWS V14.01,2013-02-14 08:20:00,
2013-02-14 03:25:00,66.0,66.0,29.88,South,190,0.0,0.0,100,0.00,,---,0.00,VWS V14.01,2013-02-14 08:25:00,
2013-02-14 03:30:00,66.0,66.0,29.88,South,190,0.0,0.0,100,0.00,,---,0.00,VWS V14.01,2013-02-14 08:30:00,
2013-02-14 04:58:00,66.0,66.0,29.88,South,190,0.0,0.0,100,0.00,,---,0.00,VWS V14.01,2013-02-14 09:58:00,
2013-02-14 05:03:00,66.0,66.0,29.88,South,190,0.0,0.0,100,0.00,,---,0.00,VWS V14.01,2013-02-14 10:03:00,
2013-02-14 05:08:00,66.0,66.0,29.88,South,190,0.0,0.0,100,0.00,,---,0.00,VWS V14.01,2013-02-14 10:08:00,
2013-02-14 05:13:00,66.0,66.0,29.88,South,190,0.0,0.0,100,0.00,,---,0.00,VWS V14.01,2013-02-14 10:13:00,
2013-02-14 05:18:00,66.0,66.0,29.88,South,190,0.0,0.0,100,0.00,,---,0.00,VWS V14.01,2013-02-14 10:18:00,
2013-02-14 05:23:00,66.0,66.0,29.88,South,190,0.0,0.0,100,0.00,,---,0.00,VWS V14.01,2013-02-14 10:23:00,
2013-02-14 05:28:00,66.0,66.0,29.88,South,190,0.0,0.0,100,0.00,,---,0.00,VWS V14.01,2013-02-14 10:28:00,
2013-02-14 05:33:00,65.8,65.8,29.88,South,190,0.0,0.0,100,0.00,,---,0.00,VWS V14.01,2013-02-14 10:33:00,
2013-02-14 05:38:00,65.8,65.8,29.88,South,190,0.0,0.0,100,0.00,,---,0.00,VWS V14.01,2013-02-14 10:38:00,
2013-02-14 05:43:00,66.0,66.0,29.88,South,190,0.0,0.0,100,0.00,,---,0.00,VWS V14.01,2013-02-14 10:43:00,
2013-02-14 05:48:00,66.0,66.0,29.88,South,190,0.0,0.0,100,0.00,,---,0.00,VWS V14.01,2013-02-14 10:48:00,
2013-02-14 05:53:00,66.0,66.0,29.88,South,190,0.0,0.0,100,0.00,,---,0.00,VWS V14.01,2013-02-14 10:53:00,
2013-02-14 05:58:00,65.8,65.8,29.88,South,190,0.0,0.0,100,0.00,,---,0.00,VWS V14.01,2013-02-14 10:58:00,
2013-02-14 06:03:00,65.8,65.8,29.88,South,190,0.0,0.0,100,0.00,,---,0.00,VWS V14.01,2013-02-14 11:03:00,
2013-02-14 06:08:00,65.8,65.8,29.88,South,190,0.0,0.0,100,0.00,,---,0.00,VWS V14.01,2013-02-14 11:08:00,
2013-02-14 06:13:00,65.7,65.7,29.91,South,190,0.0,0.0,100,0.00,,---,0.00,VWS V14.01,2013-02-14 11:13:00,
2013-02-14 06:18:00,65.7,65.7,29.91,South,190,0.0,0.0,100,0.00,,---,0.00,VWS V14.01,2013-02-14 11:18:00,
2013-02-14 06:23:00,65.7,65.7,29.91,South,190,0.0,0.0,100,0.00,,---,0.00,VWS V14.01,2013-02-14 11:23:00,
2013-02-14 06:28:00,65.5,65.5,29.91,South,190,0.0,0.0,100,0.00,,---,0.00,VWS V14.01,2013-02-14 11:28:00,
2013-02-14 06:33:00,65.5,65.5,29.91,South,190,0.0,0.0,100,0.00,,---,0.00,VWS V14.01,2013-02-14 11:33:00,
2013-02-14 06:38:00,65.3,65.3,29.91,South,190,0.0,0.0,100,0.00,,---,0.00,VWS V14.01,2013-02-14 11:38:00,
2013-02-14 06:43:00,65.1,65.1,29.91,South,190,0.0,0.0,100,0.00,,---,0.00,VWS V14.01,2013-02-14 11:43:00,
2013-02-14 06:48:00,65.1,65.1,29.91,South,190,0.0,0.0,100,0.00,,---,0.00,VWS V14.01,2013-02-14 11:48:00,
2013-02-14 06:53:00,64.9,64.9,29.91,South,190,0.0,0.0,100,0.04,,---,0.04,VWS V14.01,2013-02-14 11:53:00,
2013-02-14 06:58:00,64.8,64.8,29.91,South,190,0.0,0.0,100,0.04,,---,0.04,VWS V14.01,2013-02-14 11:58:00,
2013-02-14 07:03:00,64.8,64.8,29.91,South,190,0.0,0.0,100,0.04,,---,0.04,VWS V14.01,2013-02-14 12:03:00,
2013-02-14 07:08:00,64.6,64.6,29.91,South,190,0.0,0.0,100,0.04,,---,0.00,VWS V14.01,2013-02-14 12:08:00,
2013-02-14 07:13:00,64.6,64.6,29.94,South,190,0.0,0.0,100,0.04,,---,0.04,VWS V14.01,2013-02-14 12:13:00,
2013-02-14 07:18:00,64.4,64.4,29.94,South,190,0.0,0.0,100,0.04,,---,0.04,VWS V14.01,2013-02-14 12:18:00,
2013-02-14 07:23:00,64.2,64.2,29.94,South,190,0.0,0.0,100,0.04,,---,0.04,VWS V14.01,2013-02-14 12:23:00,
2013-02-14 07:28:00,64.2,64.2,29.94,South,190,0.0,0.0,100,0.04,,---,0.00,VWS V14.01,2013-02-14 12:28:00,
2013-02-14 07:33:00,64.4,64.4,29.94,South,190,0.0,0.0,100,0.04,,---,0.04,VWS V14.01,2013-02-14 12:33:00,
2013-02-14 07:38:00,64.4,64.4,29.94,South,190,0.0,0.0,100,0.04,,---,0.04,VWS V14.01,2013-02-14 12:38:00,
2013-02-14 07:43:00,64.6,64.6,29.94,South,190,0.0,0.0,100,0.04,,---,0.04,VWS V14.01,2013-02-14 12:43:00,
2013-02-14 07:48:00,64.6,64.6,29.94,South,190,0.0,0.0,100,0.04,,---,0.04,VWS V14.01,2013-02-14 12:48:00,
2013-02-14 07:53:00,64.8,64.8,29.94,South,190,0.0,0.0,100,0.00,,---,0.04,VWS V14.01,2013-02-14 12:53:00,
2013-02-14 07:58:00,64.9,64.9,29.94,South,190,0.0,0.0,100,0.00,,---,0.04,VWS V14.01,2013-02-14 12:58:00,
2013-02-14 08:03:00,65.1,65.1,29.94,South,190,0.0,0.0,100,0.00,,---,0.04,VWS V14.01,2013-02-14 13:03:00,
2013-02-14 08:08:00,65.1,65.1,29.94,South,190,0.0,0.0,100,0.00,,---,0.04,VWS V14.01,2013-02-14 13:08:00,
2013-02-14 08:13:00,65.3,65.3,29.94,South,190,0.0,0.0,100,0.00,,---,0.04,VWS V14.01,2013-02-14 13:13:00,
2013-02-14 08:18:00,65.5,65.5,29.94,South,190,0.0,0.0,100,0.00,,---,0.04,VWS V14.01,2013-02-14 13:18:00,
2013-02-14 08:23:00,65.5,65.5,29.94,South,190,0.0,0.0,100,0.00,,---,0.04,VWS V14.01,2013-02-14 13:23:00,
2013-02-14 08:28:00,65.5,65.5,29.94,South,190,0.0,0.0,100,0.00,,---,0.04,VWS V14.01,2013-02-14 13:28:00,
2013-02-14 08:33:00,65.7,65.7,29.94,South,190,0.0,0.0,100,0.00,,---,0.04,VWS V14.01,2013-02-14 13:33:00,
2013-02-14 08:38:00,65.8,65.8,29.94,South,190,0.0,0.0,100,0.00,,---,0.04,VWS V14.01,2013-02-14 13:38:00,
2013-02-14 08:43:00,66.0,66.0,29.97,South,190,0.0,0.0,100,0.00,,---,0.04,VWS V14.01,2013-02-14 13:43:00,
2013-02-14 08:48:00,66.2,66.2,29.97,South,190,0.0,0.0,100,0.00,,---,0.04,VWS V14.01,2013-02-14 13:48:00,
2013-02-14 08:53:00,66.4,66.4,29.97,SW,225,0.0,0.0,100,0.00,,---,0.04,VWS V14.01,2013-02-14 13:53:00,
2013-02-14 08:58:00,66.6,66.6,29.97,NW,324,0.0,0.0,100,0.00,,---,0.00,VWS V14.01,2013-02-14 13:58:00,
2013-02-14 09:03:00,66.7,66.7,29.97,WNW,299,0.0,0.0,100,0.00,,---,0.04,VWS V14.01,2013-02-14 14:03:00,
2013-02-14 09:08:00,66.9,66.9,29.97,NW,321,0.0,0.0,100,0.00,,---,0.04,VWS V14.01,2013-02-14 14:08:00,
2013-02-14 09:13:00,67.1,67.1,29.97,NNW,332,0.0,0.0,100,0.00,,---,0.04,VWS V14.01,2013-02-14 14:13:00,
2013-02-14 09:18:00,67.1,67.1,29.97,North,2,0.0,0.0,100,0.00,,---,0.04,VWS V14.01,2013-02-14 14:18:00,
2013-02-14 09:23:00,66.7,66.7,29.97,North,349,0.0,0.0,100,0.00,,---,0.04,VWS V14.01,2013-02-14 14:23:00,
2013-02-14 09:28:00,66.9,66.9,29.97,North,350,0.0,0.0,100,0.00,,---,0.04,VWS V14.01,2013-02-14 14:28:00,
2013-02-14 09:33:00,66.9,66.9,29.97,NW,314,0.0,0.0,100,0.00,,---,0.04,VWS V14.01,2013-02-14 14:33:00,
2013-02-14 09:38:00,66.7,66.7,29.97,NNW,346,2.2,2.2,100,0.00,,---,0.04,VWS V14.01,2013-02-14 14:38:00,
2013-02-14 09:43:00,66.4,65.2,29.97,North,357,0.0,0.0,96,0.00,,---,0.04,VWS V14.01,2013-02-14 14:43:00,
2013-02-14 09:48:00,66.4,64.3,29.97,North,357,0.0,0.0,93,0.00,,---,0.00,VWS V14.01,2013-02-14 14:48:00,
2013-02-14 09:53:00,66.4,64.9,29.97,North,353,2.2,2.2,95,0.00,,---,0.04,VWS V14.01,2013-02-14 14:53:00,
2013-02-14 09:58:00,66.6,65.4,30.00,WNW,282,0.0,0.0,96,0.00,,---,0.04,VWS V14.01,2013-02-14 14:58:00,
2013-02-14 10:03:00,66.6,65.7,30.00,WSW,253,5.4,5.4,97,0.00,,---,0.04,VWS V14.01,2013-02-14 15:03:00,
2013-02-14 10:08:00,66.6,64.5,30.00,West,281,2.2,2.2,93,0.00,,---,0.00,VWS V14.01,2013-02-14 15:08:00,
2013-02-14 10:13:00,66.2,61.2,30.00,NW,304,0.0,2.7,84,0.00,,---,0.04,VWS V14.01,2013-02-14 15:13:00,
2013-02-14 10:18:00,66.2,61.2,30.00,North,357,0.0,2.2,84,0.00,,---,0.04,VWS V14.01,2013-02-14 15:18:00,
2013-02-14 10:23:00,66.2,61.6,30.00,WNW,297,2.2,2.7,85,0.00,,---,0.04,VWS V14.01,2013-02-14 15:23:00,
2013-02-14 10:28:00,66.2,61.6,30.00,West,275,3.6,3.6,85,0.00,,---,0.04,VWS V14.01,2013-02-14 15:28:00,
2013-02-14 10:33:00,66.2,61.6,30.00,NW,319,3.1,3.6,85,0.00,,---,0.00,VWS V14.01,2013-02-14 15:33:00,
2013-02-14 10:38:00,66.0,60.7,30.00,NW,317,0.0,2.2,83,0.00,,---,0.04,VWS V14.01,2013-02-14 15:38:00,
2013-02-14 10:43:00,66.0,60.7,30.00,West,265,3.6,3.6,83,0.00,,---,0.04,VWS V14.01,2013-02-14 15:43:00,
2013-02-14 10:48:00,65.8,59.2,30.00,NW,324,0.0,2.2,79,0.00,,---,0.04,VWS V14.01,2013-02-14 15:48:00,
2013-02-14 10:53:00,66.0,60.0,30.00,NW,305,3.6,3.6,81,0.00,,---,0.04,VWS V14.01,2013-02-14 15:53:00,
2013-02-14 10:58:00,65.8,59.8,30.00,WNW,284,0.0,3.1,81,0.00,,---,0.04,VWS V14.01,2013-02-14 15:58:00,
2013-02-14 11:03:00,65.8,59.8,30.00,NNW,337,2.7,2.7,81,0.00,,---,0.04,VWS V14.01,2013-02-14 16:03:00,
2013-02-14 11:08:00,65.7,59.3,30.00,NW,317,3.1,3.1,80,0.00,,---,0.04,VWS V14.01,2013-02-14 16:08:00,
2013-02-14 11:13:00,65.8,60.2,30.00,North,357,2.7,2.7,82,0.00,,---,0.04,VWS V14.01,2013-02-14 16:13:00,
2013-02-14 11:18:00,65.8,59.8,30.00,North,350,0.0,2.2,81,0.00,,---,0.04,VWS V14.01,2013-02-14 16:18:00,
2013-02-14 11:23:00,65.8,60.2,30.00,NNE,12,2.7,2.7,82,0.00,,---,0.04,VWS V14.01,2013-02-14 16:23:00,
2013-02-14 11:28:00,65.7,59.0,30.00,NW,309,3.1,4.0,79,0.00,,---,0.04,VWS V14.01,2013-02-14 16:28:00,
2013-02-14 11:33:00,65.5,59.2,30.00,NNW,341,2.7,2.7,80,0.00,,---,0.04,VWS V14.01,2013-02-14 16:33:00,
2013-02-14 11:38:00,65.1,59.2,30.00,NW,322,0.0,4.0,81,0.00,,---,0.00,VWS V14.01,2013-02-14 16:38:00,
2013-02-14 11:43:00,64.8,59.1,30.00,North,357,2.7,3.1,82,0.00,,---,0.04,VWS V14.01,2013-02-14 16:43:00,
2013-02-14 11:48:00,64.4,58.5,30.00,WSW,248,2.7,2.7,81,0.00,,---,0.04,VWS V14.01,2013-02-14 16:48:00,
2013-02-14 11:53:00,64.2,59.3,30.00,NW,320,2.2,2.7,84,0.00,,---,0.00,VWS V14.01,2013-02-14 16:53:00,
2013-02-14 11:58:00,63.9,59.3,30.00,NW,322,2.7,4.0,85,0.00,,---,0.04,VWS V14.01,2013-02-14 16:58:00,
2013-02-14 12:03:00,63.7,59.1,30.00,NNE,30,0.0,2.7,85,0.00,,---,0.04,VWS V14.01,2013-02-14 17:03:00,
2013-02-14 12:08:00,63.5,59.2,30.00,NNE,13,0.0,0.0,86,0.00,,---,0.04,VWS V14.01,2013-02-14 17:08:00,
2013-02-14 12:13:00,63.5,59.6,30.00,North,2,2.7,2.7,87,0.00,,---,0.04,VWS V14.01,2013-02-14 17:13:00,
2013-02-14 12:18:00,63.5,60.2,30.00,North,5,0.0,0.0,89,0.00,,---,0.04,VWS V14.01,2013-02-14 17:18:00,
2013-02-14 12:23:00,63.5,60.5,30.00,ENE,69,0.0,0.0,90,0.00,,---,0.04,VWS V14.01,2013-02-14 17:23:00,
2013-02-14 12:28:00,63.5,60.5,29.97,North,357,0.0,3.1,90,0.00,,---,0.04,VWS V14.01,2013-02-14 17:28:00,
2013-02-14 12:33:00,63.7,61.0,29.97,NNE,14,0.0,0.0,91,0.00,,---,0.04,VWS V14.01,2013-02-14 17:33:00,
2013-02-14 12:38:00,63.7,61.0,29.97,ENE,65,0.0,0.0,91,0.00,,---,0.04,VWS V14.01,2013-02-14 17:38:00,
2013-02-14 12:43:00,63.7,61.0,29.97,NNW,346,0.0,0.0,91,0.00,,---,0.04,VWS V14.01,2013-02-14 17:43:00,
2013-02-14 12:48:00,63.9,61.5,29.97,NNE,25,0.0,0.0,92,0.00,,---,0.04,VWS V14.01,2013-02-14 17:48:00,
2013-02-14 12:53:00,63.9,62.1,29.97,North,357,0.0,0.0,94,0.00,,---,0.04,VWS V14.01,2013-02-14 17:53:00,
2013-02-14 12:58:00,64.0,63.5,29.94,North,353,0.0,0.0,98,0.00,,---,0.04,VWS V14.01,2013-02-14 17:58:00,
2013-02-14 13:03:00,64.2,64.2,29.94,NNW,346,0.0,2.7,100,0.00,,---,0.04,VWS V14.01,2013-02-14 18:03:00,
2013-02-14 13:08:00,64.2,64.2,29.94,North,353,2.2,3.6,100,0.00,,---,0.04,VWS V14.01,2013-02-14 18:08:00,
2013-02-14 13:13:00,64.2,64.2,29.94,NNW,340,0.0,2.7,100,0.00,,---,0.04,VWS V14.01,2013-02-14 18:13:00,
2013-02-14 13:18:00,64.0,64.0,29.94,NNE,21,0.0,0.0,100,0.00,,---,0.04,VWS V14.01,2013-02-14 18:18:00,
2013-02-14 13:23:00,64.0,64.0,29.94,North,11,0.0,0.0,100,0.00,,---,0.04,VWS V14.01,2013-02-14 18:23:00,
2013-02-14 13:28:00,64.0,64.0,29.94,North,1,0.0,0.0,100,0.04,,---,0.00,VWS V14.01,2013-02-14 18:28:00,
2013-02-14 13:33:00,64.0,64.0,29.94,NNE,18,0.0,0.0,100,0.04,,---,0.08,VWS V14.01,2013-02-14 18:33:00,
2013-02-14 13:38:00,64.0,64.0,29.94,North,2,0.0,0.0,100,0.04,,---,0.08,VWS V14.01,2013-02-14 18:38:00,
2013-02-14 13:43:00,64.0,64.0,29.94,North,3,0.0,0.0,100,0.04,,---,0.08,VWS V14.01,2013-02-14 18:43:00,
2013-02-14 13:48:00,64.0,64.0,29.94,NE,42,0.0,0.0,100,0.04,,---,0.08,VWS V14.01,2013-02-14 18:48:00,
2013-02-14 13:53:00,64.2,64.2,29.94,NE,42,0.0,0.0,100,0.04,,---,0.08,VWS V14.01,2013-02-14 18:53:00,
2013-02-14 13:58:00,64.2,64.2,29.94,NE,42,0.0,0.0,100,0.04,,---,0.08,VWS V14.01,2013-02-14 18:58:00,
2013-02-14 14:03:00,64.4,64.4,29.94,NE,42,0.0,0.0,100,0.04,,---,0.08,VWS V14.01,2013-02-14 19:03:00,
2013-02-14 14:08:00,64.4,64.4,29.94,NE,42,0.0,0.0,100,0.04,,---,0.00,VWS V14.01,2013-02-14 19:08:00,
2013-02-14 14:13:00,64.6,64.6,29.94,North,5,0.0,0.0,100,0.04,,---,0.08,VWS V14.01,2013-02-14 19:13:00,
2013-02-14 14:18:00,64.6,64.6,29.94,North,4,0.0,0.0,100,0.04,,---,0.08,VWS V14.01,2013-02-14 19:18:00,
2013-02-14 14:23:00,64.8,64.8,29.94,North,5,0.0,0.0,100,0.04,,---,0.08,VWS V14.01,2013-02-14 19:23:00,
2013-02-14 14:28:00,64.8,64.8,29.94,North,5,0.0,0.0,100,0.00,,---,0.08,VWS V14.01,2013-02-14 19:28:00,
2013-02-14 14:33:00,64.8,64.8,29.94,North,5,0.0,0.0,100,0.00,,---,0.08,VWS V14.01,2013-02-14 19:33:00,
2013-02-14 14:38:00,64.8,64.8,29.94,North,5,0.0,0.0,100,0.00,,---,0.08,VWS V14.01,2013-02-14 19:38:00,
2013-02-14 14:43:00,64.8,64.8,29.91,North,5,0.0,0.0,100,0.00,,---,0.08,VWS V14.01,2013-02-14 19:43:00,
2013-02-14 14:48:00,64.8,64.8,29.91,North,5,0.0,0.0,100,0.00,,---,0.08,VWS V14.01,2013-02-14 19:48:00,
2013-02-14 14:53:00,64.8,64.8,29.91,North,5,0.0,0.0,100,0.00,,---,0.08,VWS V14.01,2013-02-14 19:53:00,
2013-02-14 14:58:00,64.6,64.6,29.94,North,5,0.0,0.0,100,0.00,,---,0.08,VWS V14.01,2013-02-14 19:58:00,
2013-02-14 15:03:00,64.8,64.8,29.94,North,5,0.0,0.0,100,0.00,,---,0.08,VWS V14.01,2013-02-14 20:03:00,
2013-02-14 15:08:00,64.8,64.8,29.94,North,5,0.0,0.0,100,0.04,,---,0.12,VWS V14.01,2013-02-14 20:08:00,
2013-02-14 15:13:00,64.8,64.8,29.94,North,5,0.0,0.0,100,0.04,,---,0.12,VWS V14.01,2013-02-14 20:13:00,
2013-02-14 15:18:00,64.8,64.8,29.94,North,5,0.0,0.0,100,0.04,,---,0.12,VWS V14.01,2013-02-14 20:18:00,
2013-02-14 15:23:00,64.8,64.8,29.94,North,4,0.0,0.0,100,0.04,,---,0.12,VWS V14.01,2013-02-14 20:23:00,
2013-02-14 15:28:00,64.8,64.8,29.91,North,5,0.0,0.0,100,0.04,,---,0.12,VWS V14.01,2013-02-14 20:28:00,
2013-02-14 15:33:00,64.8,64.8,29.91,North,5,0.0,0.0,100,0.04,,---,0.00,VWS V14.01,2013-02-14 20:33:00,
2013-02-14 15:38:00,64.8,64.8,29.91,WNW,300,0.0,0.0,100,0.04,,---,0.00,VWS V14.01,2013-02-14 20:38:00,
2013-02-14 15:43:00,64.8,64.8,29.91,WNW,300,0.0,0.0,100,0.04,,---,0.00,VWS V14.01,2013-02-14 20:43:00,
2013-02-14 15:48:00,64.8,64.8,29.91,WNW,299,0.0,0.0,100,0.04,,---,0.12,VWS V14.01,2013-02-14 20:48:00,
2013-02-14 15:53:00,64.6,64.6,29.91,WNW,299,0.0,0.0,100,0.04,,---,0.12,VWS V14.01,2013-02-14 20:53:00,
2013-02-14 15:58:00,64.6,64.6,29.94,WNW,300,0.0,0.0,100,0.04,,---,0.12,VWS V14.01,2013-02-14 20:58:00,
2013-02-14 16:03:00,64.2,64.2,29.94,WNW,300,0.0,0.0,100,0.04,,---,0.12,VWS V14.01,2013-02-14 21:03:00,
2013-02-14 16:08:00,64.2,64.2,29.94,West,278,0.0,0.0,100,0.00,,---,0.12,VWS V14.01,2013-02-14 21:08:00,
2013-02-14 16:13:00,64.0,64.0,29.94,West,278,0.0,0.0,100,0.00,,---,0.12,VWS V14.01,2013-02-14 21:13:00,
2013-02-14 16:18:00,63.9,63.9,29.94,West,277,0.0,0.0,100,0.00,,---,0.12,VWS V14.01,2013-02-14 21:18:00,
2013-02-14 16:23:00,63.9,63.9,29.94,West,277,0.0,0.0,100,0.04,,---,0.16,VWS V14.01,2013-02-14 21:23:00,
2013-02-14 16:28:00,63.9,63.9,29.94,West,277,0.0,0.0,100,0.04,,---,0.16,VWS V14.01,2013-02-14 21:28:00,
2013-02-14 16:33:00,63.7,63.7,29.94,West,278,0.0,0.0,100,0.04,,---,0.16,VWS V14.01,2013-02-14 21:33:00,
2013-02-14 16:38:00,63.7,63.7,29.94,West,278,0.0,0.0,100,0.04,,---,0.16,VWS V14.01,2013-02-14 21:38:00,
2013-02-14 16:43:00,63.5,63.5,29.94,West,279,0.0,0.0,100,0.04,,---,0.16,VWS V14.01,2013-02-14 21:43:00,
2013-02-14 16:48:00,63.5,63.5,29.94,West,279,0.0,0.0,100,0.04,,---,0.00,VWS V14.01,2013-02-14 21:48:00,
2013-02-14 16:53:00,63.3,63.3,29.94,West,279,0.0,0.0,100,0.08,,---,0.20,VWS V14.01,2013-02-14 21:53:00,
2013-02-14 16:58:00,63.1,63.1,29.94,West,279,0.0,0.0,100,0.08,,---,0.20,VWS V14.01,2013-02-14 21:58:00,
2013-02-14 17:03:00,63.3,63.3,29.94,WNW,298,0.0,0.0,100,0.08,,---,0.20,VWS V14.01,2013-02-14 22:03:00,
2013-02-14 17:08:00,63.1,63.1,29.94,NNW,330,0.0,0.0,100,0.08,,---,0.20,VWS V14.01,2013-02-14 22:08:00,
2013-02-14 17:13:00,63.1,63.1,29.94,NNW,331,0.0,0.0,100,0.08,,---,0.20,VWS V14.01,2013-02-14 22:13:00,
2013-02-14 17:18:00,63.1,63.1,29.94,NNW,330,0.0,0.0,100,0.08,,---,0.20,VWS V14.01,2013-02-14 22:18:00,
2013-02-14 17:23:00,63.1,63.1,29.94,NNW,330,0.0,0.0,100,0.04,,---,0.20,VWS V14.01,2013-02-14 22:23:00,
2013-02-14 17:28:00,63.1,63.1,29.94,NNW,330,0.0,0.0,100,0.04,,---,0.20,VWS V14.01,2013-02-14 22:28:00,
2013-02-14 17:33:00,63.1,63.1,29.94,NNW,330,0.0,0.0,100,0.04,,---,0.20,VWS V14.01,2013-02-14 22:33:00,
2013-02-14 17:38:00,63.3,63.3,29.94,West,267,0.0,0.0,100,0.04,,---,0.20,VWS V14.01,2013-02-14 22:38:00,
2013-02-14 17:43:00,63.3,63.3,29.94,West,270,0.0,0.0,100,0.04,,---,0.20,VWS V14.01,2013-02-14 22:43:00,
2013-02-14 17:48:00,63.5,63.5,29.94,West,265,0.0,0.0,100,0.04,,---,0.20,VWS V14.01,2013-02-14 22:48:00,
2013-02-14 17:53:00,63.5,63.5,29.94,West,281,0.0,0.0,100,0.00,,---,0.20,VWS V14.01,2013-02-14 22:53:00,
2013-02-14 17:58:00,63.5,63.5,29.97,West,277,0.0,0.0,100,0.00,,---,0.20,VWS V14.01,2013-02-14 22:58:00,
2013-02-14 18:03:00,63.5,63.5,29.97,West,277,0.0,0.0,100,0.00,,---,0.00,VWS V14.01,2013-02-14 23:03:00,
2013-02-14 18:08:00,63.5,63.5,29.97,WNW,283,0.0,8.7,100,0.00,,---,0.20,VWS V14.01,2013-02-14 23:08:00,
2013-02-14 18:13:00,63.3,63.3,29.97,NNW,328,2.2,2.2,100,0.00,,---,0.20,VWS V14.01,2013-02-14 23:13:00,
2013-02-14 18:18:00,63.3,63.3,29.97,WNW,299,0.0,3.1,100,0.00,,---,0.20,VWS V14.01,2013-02-14 23:18:00,
2013-02-14 18:23:00,63.1,63.1,29.97,NW,317,6.3,6.3,100,0.00,,---,0.20,VWS V14.01,2013-02-14 23:23:00,
2013-02-14 18:28:00,63.1,63.1,29.97,NNW,336,2.2,2.2,100,0.00,,---,0.20,VWS V14.01,2013-02-14 23:28:00,
2013-02-14 18:33:00,63.0,63.0,29.97,NW,307,0.0,0.0,100,0.00,,---,0.20,VWS V14.01,2013-02-14 23:33:00,
2013-02-14 18:38:00,63.0,63.0,29.97,North,353,2.7,4.0,100,0.00,,---,0.20,VWS V14.01,2013-02-14 23:38:00,
2013-02-14 18:43:00,62.6,62.6,29.97,North,357,0.0,0.0,100,0.00,,---,0.20,VWS V14.01,2013-02-14 23:43:00,
2013-02-14 18:48:00,62.6,62.6,29.97,North,357,0.0,0.0,100,0.00,,---,0.20,VWS V14.01,2013-02-14 23:48:00,
2013-02-14 18:53:00,62.6,62.6,29.97,North,357,0.0,0.0,100,0.00,,---,0.20,VWS V14.01,2013-02-14 23:53:00,
2013-02-14 18:58:00,62.6,62.6,29.97,North,357,0.0,0.0,100,0.00,,---,0.20,VWS V14.01,2013-02-14 23:58:00,
2013-02-14 19:03:00,62.4,62.4,29.97,North,350,0.0,0.0,100,0.00,,---,0.20,VWS V14.01,2013-02-15 00:03:00,
2013-02-14 19:08:00,62.4,62.4,29.97,North,3,0.0,0.0,100,0.00,,---,0.20,VWS V14.01,2013-02-15 00:08:00,
2013-02-14 19:13:00,62.2,62.2,29.94,North,357,0.0,3.1,100,0.00,,---,0.20,VWS V14.01,2013-02-15 00:13:00,
2013-02-14 19:18:00,62.2,62.2,29.94,North,3,0.0,0.0,100,0.00,,---,0.20,VWS V14.01,2013-02-15 00:18:00,
2013-02-14 19:23:00,62.2,62.2,29.94,North,7,0.0,3.6,100,0.00,,---,0.20,VWS V14.01,2013-02-15 00:23:00,
2013-02-14 19:28:00,62.2,62.2,29.94,North,353,0.0,0.0,100,0.00,,---,0.20,VWS V14.01,2013-02-15 00:28:00,
2013-02-14 19:33:00,62.2,62.2,29.94,North,357,0.0,0.0,100,0.00,,---,0.20,VWS V14.01,2013-02-15 00:33:00,
2013-02-14 19:38:00,62.2,62.2,29.94,North,11,0.0,0.0,100,0.00,,---,0.20,VWS V14.01,2013-02-15 00:38:00,
2013-02-14 19:43:00,62.2,62.2,29.97,North,1,0.0,0.0,100,0.00,,---,0.20,VWS V14.01,2013-02-15 00:43:00,
2013-02-14 19:48:00,62.4,62.4,29.97,North,0,0.0,0.0,100,0.00,,---,0.00,VWS V14.01,2013-02-15 00:48:00,
2013-02-14 19:53:00,62.4,62.4,29.97,North,0,0.0,0.0,100,0.00,,---,0.20,VWS V14.01,2013-02-15 00:53:00,
2013-02-14 19:58:00,62.4,62.4,29.97,North,0,0.0,0.0,100,0.00,,---,0.20,VWS V14.01,2013-02-15 00:58:00,
2013-02-14 20:02:00,62.6,62.6,29.97,North,0,0.0,0.0,100,0.00,,---,0.20,VWS V14.01,2013-02-15 01:02:00,
2013-02-14 20:07:00,62.6,62.6,29.97,North,357,0.0,0.0,100,0.00,,---,0.20,VWS V14.01,2013-02-15 01:07:00,
2013-02-14 20:12:00,62.6,62.6,29.97,North,357,0.0,0.0,100,0.00,,---,0.00,VWS V14.01,2013-02-15 01:12:00,
2013-02-14 20:17:00,62.6,62.6,29.97,North,6,0.0,0.0,100,0.00,,---,0.20,VWS V14.01,2013-02-15 01:17:00,
2013-02-14 20:22:00,62.6,62.6,29.97,North,9,0.0,2.7,100,0.00,,---,0.20,VWS V14.01,2013-02-15 01:22:00,
2013-02-14 20:27:00,62.4,62.4,29.94,North,349,0.0,0.0,100,0.04,,---,0.24,VWS V14.01,2013-02-15 01:27:00,
2013-02-14 20:32:00,62.4,62.4,29.94,NNE,15,2.7,2.7,100,0.04,,---,0.24,VWS V14.01,2013-02-15 01:32:00,
2013-02-14 20:37:00,62.4,62.4,29.94,NE,38,0.0,0.0,100,0.04,,---,0.24,VWS V14.01,2013-02-15 01:37:00,
2013-02-14 20:42:00,62.4,62.4,29.94,North,11,0.0,0.0,100,0.04,,---,0.24,VWS V14.01,2013-02-15 01:42:00,
2013-02-14 20:47:00,62.4,62.4,29.94,NE,43,0.0,0.0,100,0.04,,---,0.24,VWS V14.01,2013-02-15 01:47:00,
2013-02-14 20:52:00,62.4,62.4,29.94,NNE,27,0.0,0.0,100,0.04,,---,0.24,VWS V14.01,2013-02-15 01:52:00,
2013-02-14 20:57:00,62.4,62.4,29.94,NE,54,0.0,3.6,100,0.04,,---,0.24,VWS V14.01,2013-02-15 01:57:00,
2013-02-14 21:02:00,62.2,62.2,29.94,North,9,0.0,0.0,100,0.04,,---,0.24,VWS V14.01,2013-02-15 02:02:00,
2013-02-14 21:07:00,62.2,62.2,29.94,North,9,0.0,0.0,100,0.04,,---,0.24,VWS V14.01,2013-02-15 02:07:00,
2013-02-14 21:12:00,62.4,62.4,29.97,North,9,0.0,0.0,100,0.04,,---,0.24,VWS V14.01,2013-02-15 02:12:00,
2013-02-14 21:17:00,62.4,62.4,29.97,North,9,0.0,0.0,100,0.04,,---,0.00,VWS V14.01,2013-02-15 02:17:00,
2013-02-14 21:22:00,62.4,62.4,29.97,North,6,0.0,0.0,100,0.04,,---,0.24,VWS V14.01,2013-02-15 02:22:00,
2013-02-14 21:27:00,62.6,62.6,30.00,West,276,0.0,4.0,100,0.00,,---,0.24,VWS V14.01,2013-02-15 02:27:00,
2013-02-14 21:32:00,62.6,62.6,30.00,West,277,0.0,0.0,100,0.00,,---,0.24,VWS V14.01,2013-02-15 02:32:00,
2013-02-14 21:37:00,62.6,62.6,30.00,West,270,0.0,0.0,100,0.00,,---,0.24,VWS V14.01,2013-02-15 02:37:00,
2013-02-14 21:42:00,62.6,62.6,30.00,WNW,290,2.7,2.7,100,0.00,,---,0.24,VWS V14.01,2013-02-15 02:42:00,
2013-02-14 21:47:00,62.6,62.6,30.00,WNW,284,0.0,4.0,100,0.00,,---,0.24,VWS V14.01,2013-02-15 02:47:00,
2013-02-14 21:52:00,62.6,62.6,30.00,WNW,284,0.0,2.7,100,0.00,,---,0.24,VWS V14.01,2013-02-15 02:52:00,
2013-02-14 21:57:00,62.6,62.6,30.00,WNW,302,0.0,0.0,100,0.00,,---,0.24,VWS V14.01,2013-02-15 02:57:00,
2013-02-14 22:02:00,62.6,62.6,30.00,WNW,290,0.0,0.0,100,0.00,,---,0.00,VWS V14.01,2013-02-15 03:02:00,
2013-02-14 22:07:00,62.6,62.6,30.00,WNW,290,0.0,0.0,100,0.00,,---,0.00,VWS V14.01,2013-02-15 03:07:00,
2013-02-14 22:12:00,62.6,62.6,30.00,WNW,290,0.0,0.0,100,0.00,,---,0.24,VWS V14.01,2013-02-15 03:12:00,
2013-02-14 22:17:00,62.6,62.6,30.00,WNW,290,0.0,0.0,100,0.00,,---,0.24,VWS V14.01,2013-02-15 03:17:00,
2013-02-14 22:22:00,62.6,62.6,30.00,ENE,73,0.0,0.0,100,0.00,,---,0.24,VWS V14.01,2013-02-15 03:22:00,
2013-02-14 22:27:00,62.4,62.4,29.97,North,1,0.0,0.0,100,0.04,,---,0.28,VWS V14.01,2013-02-15 03:27:00,
2013-02-14 22:32:00,62.4,62.4,29.97,North,1,0.0,0.0,100,0.04,,---,0.28,VWS V14.01,2013-02-15 03:32:00,
2013-02-14 22:37:00,62.4,62.4,29.97,North,0,0.0,0.0,100,0.04,,---,0.28,VWS V14.01,2013-02-15 03:37:00,
2013-02-14 22:42:00,62.4,62.4,29.97,North,1,0.0,0.0,100,0.04,,---,0.00,VWS V14.01,2013-02-15 03:42:00,
2013-02-14 22:47:00,62.2,62.2,29.97,NNE,30,0.0,0.0,100,0.04,,---,0.28,VWS V14.01,2013-02-15 03:47:00,
2013-02-14 22:52:00,62.2,62.2,29.97,NNE,15,0.0,0.0,100,0.04,,---,0.28,VWS V14.01,2013-02-15 03:52:00,
2013-02-14 22:57:00,62.2,62.2,29.94,West,271,2.7,2.7,100,0.04,,---,0.28,VWS V14.01,2013-02-15 03:57:00,
2013-02-14 23:02:00,62.4,62.4,29.94,West,272,0.0,0.0,100,0.04,,---,0.28,VWS V14.01,2013-02-15 04:02:00,
2013-02-14 23:07:00,62.4,62.4,29.94,West,272,0.0,0.0,100,0.04,,---,0.28,VWS V14.01,2013-02-15 04:07:00,
2013-02-14 23:12:00,62.6,62.6,29.97,West,274,0.0,0.0,100,0.04,,---,0.28,VWS V14.01,2013-02-15 04:12:00,
2013-02-14 23:17:00,62.6,62.6,29.97,West,273,0.0,0.0,100,0.04,,---,0.28,VWS V14.01,2013-02-15 04:17:00,
2013-02-14 23:22:00,62.6,62.6,29.97,West,277,0.0,2.2,100,0.04,,---,0.28,VWS V14.01,2013-02-15 04:22:00,
2013-02-14 23:27:00,62.8,62.8,29.97,West,277,0.0,0.0,100,0.00,,---,0.28,VWS V14.01,2013-02-15 04:27:00,
2013-02-14 23:32:00,62.8,62.8,29.97,West,277,0.0,0.0,100,0.00,,---,0.28,VWS V14.01,2013-02-15 04:32:00,
2013-02-14 23:37:00,62.6,62.6,29.97,West,277,0.0,0.0,100,0.00,,---,0.28,VWS V14.01,2013-02-15 04:37:00,
2013-02-14 23:42:00,62.6,62.6,29.97,West,277,0.0,0.0,100,0.00,,---,0.28,VWS V14.01,2013-02-15 04:42:00,
2013-02-14 23:47:00,62.6,62.6,29.97,NE,41,0.0,0.0,100,0.00,,---,0.28,VWS V14.01,2013-02-15 04:47:00,
2013-02-14 23:52:00,62.4,62.4,29.97,North,349,0.0,0.0,100,0.00,,---,0.28,VWS V14.01,2013-02-15 04:52:00,
2013-02-14 23:57:00,62.6,62.6,29.94,North,2,0.0,0.0,100,0.00,,---,0.28,VWS V14.01,2013-02-15 04:57:00,